sensor_id;sensor_type;location;lat;lon;timestamp;pressure;altitude;pressure_sealevel;temperature;humidity
52777;BME280;38656;54.260;20.822;2023-03-01T00:02:08;102200.53;;;15.06;42.66
52777;BME280;38656;54.260;20.822;2023-03-01T00:04:34;102197.56;;;14.97;42.73
52777;BME280;38656;54.260;20.822;2023-03-01T00:07:01;102197.75;;;14.43;43.90
52777;BME280;38656;54.260;20.822;2023-03-01T00:09:27;102194.63;;;12.85;46.49
52777;BME280;38656;54.260;20.822;2023-03-01T00:11:54;102187.88;;;13.79;45.46
52777;BME280;38656;54.260;20.822;2023-03-01T00:14:20;102181.81;;;14.43;44.06
52777;BME280;38656;54.260;20.822;2023-03-01T00:16:46;102182.97;;;14.39;44.77
52777;BME280;38656;54.260;20.822;2023-03-01T00:19:18;102177.69;;;14.77;44.56
52777;BME280;38656;54.260;20.822;2023-03-01T00:21:45;102180.09;;;14.29;45.25
52777;BME280;38656;54.260;20.822;2023-03-01T00:24:11;102185.09;;;15.48;43.63
52777;BME280;38656;54.260;20.822;2023-03-01T00:26:38;102182.44;;;15.35;42.38
52777;BME280;38656;54.260;20.822;2023-03-01T00:29:04;102182.25;;;13.84;46.29
52777;BME280;38656;54.260;20.822;2023-03-01T00:31:32;102185.53;;;14.27;45.86
52777;BME280;38656;54.260;20.822;2023-03-01T00:34:00;102188.56;;;16.21;41.56
52777;BME280;38656;54.260;20.822;2023-03-01T00:36:30;102184.50;;;16.73;41.43
52777;BME280;38656;54.260;20.822;2023-03-01T00:38:57;102178.03;;;15.47;42.75
52777;BME280;38656;54.260;20.822;2023-03-01T00:41:23;102185.38;;;14.16;45.09
52777;BME280;38656;54.260;20.822;2023-03-01T00:43:50;102168.91;;;15.38;44.52
52777;BME280;38656;54.260;20.822;2023-03-01T00:46:19;102167.56;;;14.82;45.52
52777;BME280;38656;54.260;20.822;2023-03-01T00:48:46;102171.44;;;13.59;46.34
52777;BME280;38656;54.260;20.822;2023-03-01T00:51:14;102175.91;;;14.12;46.42
52777;BME280;38656;54.260;20.822;2023-03-01T00:53:41;102162.78;;;14.49;47.65
52777;BME280;38656;54.260;20.822;2023-03-01T00:56:09;102155.00;;;13.40;48.85
52777;BME280;38656;54.260;20.822;2023-03-01T00:58:36;102156.47;;;13.98;46.76
52777;BME280;38656;54.260;20.822;2023-03-01T01:01:24;102165.78;;;14.83;45.54
52777;BME280;38656;54.260;20.822;2023-03-01T01:03:58;102153.09;;;14.35;46.87
52777;BME280;38656;54.260;20.822;2023-03-01T01:06:30;102144.53;;;13.51;49.22
52777;BME280;38656;54.260;20.822;2023-03-01T01:08:56;102146.19;;;15.21;47.33
52777;BME280;38656;54.260;20.822;2023-03-01T01:11:25;102150.34;;;14.75;46.83
52777;BME280;38656;54.260;20.822;2023-03-01T01:13:52;102149.19;;;13.75;50.93
52777;BME280;38656;54.260;20.822;2023-03-01T01:16:19;102143.72;;;14.94;47.39
52777;BME280;38656;54.260;20.822;2023-03-01T01:18:46;102150.06;;;13.88;50.10
52777;BME280;38656;54.260;20.822;2023-03-01T01:21:15;102141.16;;;14.15;50.14
52777;BME280;38656;54.260;20.822;2023-03-01T01:23:43;102135.22;;;13.98;49.06
52777;BME280;38656;54.260;20.822;2023-03-01T01:26:13;102135.47;;;14.73;49.95
52777;BME280;38656;54.260;20.822;2023-03-01T01:28:39;102132.38;;;14.27;51.13
52777;BME280;38656;54.260;20.822;2023-03-01T01:31:06;102134.66;;;13.53;51.84
52777;BME280;38656;54.260;20.822;2023-03-01T01:33:33;102135.47;;;13.41;54.10
52777;BME280;38656;54.260;20.822;2023-03-01T01:36:00;102136.69;;;14.03;52.22
52777;BME280;38656;54.260;20.822;2023-03-01T01:38:26;102133.25;;;13.75;54.18
52777;BME280;38656;54.260;20.822;2023-03-01T01:40:52;102125.75;;;13.94;53.36
52777;BME280;38656;54.260;20.822;2023-03-01T01:45:52;102116.53;;;14.13;52.65
52777;BME280;38656;54.260;20.822;2023-03-01T01:48:23;102100.66;;;15.13;48.92
52777;BME280;38656;54.260;20.822;2023-03-01T01:50:59;102107.59;;;14.65;47.85
52777;BME280;38656;54.260;20.822;2023-03-01T01:53:26;102104.59;;;14.83;50.12
52777;BME280;38656;54.260;20.822;2023-03-01T01:55:58;102107.78;;;13.98;50.25
52777;BME280;38656;54.260;20.822;2023-03-01T01:58:29;102101.94;;;13.40;52.17
52777;BME280;38656;54.260;20.822;2023-03-01T02:00:55;102102.94;;;14.93;50.03
52777;BME280;38656;54.260;20.822;2023-03-01T02:03:31;102095.00;;;13.65;52.36
52777;BME280;38656;54.260;20.822;2023-03-01T02:06:29;102093.69;;;13.57;53.25
52777;BME280;38656;54.260;20.822;2023-03-01T02:09:05;102087.81;;;14.18;52.33
52777;BME280;38656;54.260;20.822;2023-03-01T02:11:33;102093.13;;;14.18;50.51
52777;BME280;38656;54.260;20.822;2023-03-01T02:14:00;102093.78;;;13.28;52.03
52777;BME280;38656;54.260;20.822;2023-03-01T02:16:26;102084.41;;;13.90;52.22
52777;BME280;38656;54.260;20.822;2023-03-01T02:18:53;102089.84;;;12.08;56.59
52777;BME280;38656;54.260;20.822;2023-03-01T02:21:53;102078.66;;;13.16;55.95
52777;BME280;38656;54.260;20.822;2023-03-01T02:24:48;102075.56;;;13.37;55.59
52777;BME280;38656;54.260;20.822;2023-03-01T02:27:20;102062.88;;;13.55;55.08
52777;BME280;38656;54.260;20.822;2023-03-01T02:29:50;102066.75;;;13.09;55.07
52777;BME280;38656;54.260;20.822;2023-03-01T02:32:17;102063.88;;;12.99;54.66
52777;BME280;38656;54.260;20.822;2023-03-01T02:34:54;102059.22;;;14.09;52.73
52777;BME280;38656;54.260;20.822;2023-03-01T02:37:22;102062.25;;;13.38;52.25
52777;BME280;38656;54.260;20.822;2023-03-01T02:39:58;102052.78;;;13.20;55.76
52777;BME280;38656;54.260;20.822;2023-03-01T02:42:30;102072.53;;;12.74;56.39
52777;BME280;38656;54.260;20.822;2023-03-01T02:44:57;102060.06;;;12.18;56.70
52777;BME280;38656;54.260;20.822;2023-03-01T02:47:23;102052.94;;;13.04;57.13
52777;BME280;38656;54.260;20.822;2023-03-01T02:49:50;102062.50;;;12.36;56.86
52777;BME280;38656;54.260;20.822;2023-03-01T02:55:20;102057.94;;;12.52;57.79
52777;BME280;38656;54.260;20.822;2023-03-01T02:57:48;102058.50;;;13.41;57.39
52777;BME280;38656;54.260;20.822;2023-03-01T03:00:39;102053.38;;;14.68;51.00
52777;BME280;38656;54.260;20.822;2023-03-01T03:03:13;102049.06;;;12.53;58.76
52777;BME280;38656;54.260;20.822;2023-03-01T03:05:39;102047.13;;;12.84;57.23
52777;BME280;38656;54.260;20.822;2023-03-01T03:08:06;102049.13;;;13.08;56.99
52777;BME280;38656;54.260;20.822;2023-03-01T03:10:35;102052.16;;;13.43;57.68
52777;BME280;38656;54.260;20.822;2023-03-01T03:13:07;102048.25;;;14.52;54.46
52777;BME280;38656;54.260;20.822;2023-03-01T03:15:37;102051.53;;;13.25;56.76
52777;BME280;38656;54.260;20.822;2023-03-01T03:18:07;102049.75;;;13.66;56.47
52777;BME280;38656;54.260;20.822;2023-03-01T03:20:34;102053.78;;;12.63;59.98
52777;BME280;38656;54.260;20.822;2023-03-01T03:23:01;102047.28;;;12.96;58.17
52777;BME280;38656;54.260;20.822;2023-03-01T03:25:28;102045.63;;;14.26;55.09
52777;BME280;38656;54.260;20.822;2023-03-01T03:27:55;102055.03;;;13.26;56.45
52777;BME280;38656;54.260;20.822;2023-03-01T03:30:30;102046.63;;;13.19;56.70
52777;BME280;38656;54.260;20.822;2023-03-01T03:32:57;102047.13;;;12.84;55.99
52777;BME280;38656;54.260;20.822;2023-03-01T03:37:51;102041.63;;;12.17;57.09
52777;BME280;38656;54.260;20.822;2023-03-01T03:40:39;102043.81;;;11.80;58.80
52777;BME280;38656;54.260;20.822;2023-03-01T03:43:24;102032.44;;;12.51;58.95
52777;BME280;38656;54.260;20.822;2023-03-01T03:45:51;102031.78;;;12.04;60.96
52777;BME280;38656;54.260;20.822;2023-03-01T03:48:18;102033.81;;;11.55;60.56
52777;BME280;38656;54.260;20.822;2023-03-01T03:50:49;102028.28;;;13.29;58.59
52777;BME280;38656;54.260;20.822;2023-03-01T03:53:16;102026.25;;;12.65;56.19
52777;BME280;38656;54.260;20.822;2023-03-01T03:55:42;102034.91;;;12.26;60.25
52777;BME280;38656;54.260;20.822;2023-03-01T03:58:11;102031.66;;;12.49;56.43
52777;BME280;38656;54.260;20.822;2023-03-01T04:00:43;102017.66;;;13.56;55.94
52777;BME280;38656;54.260;20.822;2023-03-01T04:03:10;102022.31;;;12.85;55.73
52777;BME280;38656;54.260;20.822;2023-03-01T04:05:37;102018.41;;;13.18;54.89
52777;BME280;38656;54.260;20.822;2023-03-01T04:08:05;102026.69;;;12.01;55.37
52777;BME280;38656;54.260;20.822;2023-03-01T04:10:42;102011.13;;;13.75;53.12
52777;BME280;38656;54.260;20.822;2023-03-01T04:13:14;102014.22;;;13.94;51.45
52777;BME280;38656;54.260;20.822;2023-03-01T04:15:41;102021.47;;;13.12;53.91
52777;BME280;38656;54.260;20.822;2023-03-01T04:18:14;102019.94;;;13.62;54.60
52777;BME280;38656;54.260;20.822;2023-03-01T04:20:42;102023.66;;;13.33;55.17
52777;BME280;38656;54.260;20.822;2023-03-01T04:23:17;102010.94;;;13.38;52.27
52777;BME280;38656;54.260;20.822;2023-03-01T04:25:49;102018.81;;;13.12;52.39
52777;BME280;38656;54.260;20.822;2023-03-01T04:28:23;102016.66;;;12.77;52.85
52777;BME280;38656;54.260;20.822;2023-03-01T04:30:51;102013.53;;;12.29;54.46
52777;BME280;38656;54.260;20.822;2023-03-01T04:33:18;102010.09;;;11.98;56.65
52777;BME280;38656;54.260;20.822;2023-03-01T04:35:44;102008.28;;;13.38;51.86
52777;BME280;38656;54.260;20.822;2023-03-01T04:38:11;102003.00;;;13.38;53.43
52777;BME280;38656;54.260;20.822;2023-03-01T04:40:37;102002.06;;;11.99;59.39
52777;BME280;38656;54.260;20.822;2023-03-01T04:43:04;102005.25;;;13.17;53.99
52777;BME280;38656;54.260;20.822;2023-03-01T04:45:34;101999.00;;;14.09;52.03
52777;BME280;38656;54.260;20.822;2023-03-01T04:48:01;102000.59;;;13.20;53.86
52777;BME280;38656;54.260;20.822;2023-03-01T04:50:27;101992.16;;;13.41;53.33
52777;BME280;38656;54.260;20.822;2023-03-01T04:52:53;101989.53;;;13.67;52.75
52777;BME280;38656;54.260;20.822;2023-03-01T04:55:20;101991.84;;;13.05;54.84
52777;BME280;38656;54.260;20.822;2023-03-01T04:57:46;101999.28;;;13.53;54.89
52777;BME280;38656;54.260;20.822;2023-03-01T05:00:13;101995.59;;;13.43;56.24
52777;BME280;38656;54.260;20.822;2023-03-01T05:03:06;102002.47;;;12.78;56.03
52777;BME280;38656;54.260;20.822;2023-03-01T05:05:39;102006.88;;;14.11;51.29
52777;BME280;38656;54.260;20.822;2023-03-01T05:08:08;102006.88;;;14.11;52.88
52777;BME280;38656;54.260;20.822;2023-03-01T05:10:36;102003.88;;;14.03;52.78
52777;BME280;38656;54.260;20.822;2023-03-01T05:13:04;102007.91;;;13.95;55.49
52777;BME280;38656;54.260;20.822;2023-03-01T05:15:32;102008.19;;;13.12;57.53
52777;BME280;38656;54.260;20.822;2023-03-01T05:17:59;102006.34;;;13.93;55.64
52777;BME280;38656;54.260;20.822;2023-03-01T05:20:30;102011.06;;;13.36;57.40
52777;BME280;38656;54.260;20.822;2023-03-01T05:22:59;102009.50;;;13.47;55.64
52777;BME280;38656;54.260;20.822;2023-03-01T05:25:26;101997.19;;;14.10;55.03
52777;BME280;38656;54.260;20.822;2023-03-01T05:27:52;102016.81;;;13.43;54.90
52777;BME280;38656;54.260;20.822;2023-03-01T05:30:19;102008.94;;;14.31;52.70
52777;BME280;38656;54.260;20.822;2023-03-01T05:32:47;102015.75;;;14.36;55.37
52777;BME280;38656;54.260;20.822;2023-03-01T05:35:16;102021.47;;;15.52;49.80
52777;BME280;38656;54.260;20.822;2023-03-01T05:37:47;102031.63;;;15.58;49.17
52777;BME280;38656;54.260;20.822;2023-03-01T05:40:19;102028.34;;;15.79;50.81
52777;BME280;38656;54.260;20.822;2023-03-01T05:42:48;102026.59;;;15.07;50.88
52777;BME280;38656;54.260;20.822;2023-03-01T05:45:16;102035.22;;;14.23;52.24
52777;BME280;38656;54.260;20.822;2023-03-01T05:47:44;102040.38;;;15.00;49.53
52777;BME280;38656;54.260;20.822;2023-03-01T05:50:21;102045.22;;;16.36;47.46
52777;BME280;38656;54.260;20.822;2023-03-01T05:52:50;102053.34;;;16.23;46.45
52777;BME280;38656;54.260;20.822;2023-03-01T05:55:18;102056.25;;;15.73;47.92
52777;BME280;38656;54.260;20.822;2023-03-01T05:57:44;102051.09;;;15.47;48.89
52777;BME280;38656;54.260;20.822;2023-03-01T06:00:12;102060.38;;;14.56;49.40
52777;BME280;38656;54.260;20.822;2023-03-01T06:02:39;102064.09;;;13.09;54.37
52777;BME280;38656;54.260;20.822;2023-03-01T06:05:07;102067.00;;;14.63;53.32
52777;BME280;38656;54.260;20.822;2023-03-01T06:07:34;102057.22;;;16.41;48.34
52777;BME280;38656;54.260;20.822;2023-03-01T06:10:01;102057.41;;;13.71;55.46
52777;BME280;38656;54.260;20.822;2023-03-01T06:12:33;102063.13;;;13.65;54.85
52777;BME280;38656;54.260;20.822;2023-03-01T06:15:00;102064.47;;;14.86;52.01
52777;BME280;38656;54.260;20.822;2023-03-01T06:17:30;102073.44;;;13.69;54.61
52777;BME280;38656;54.260;20.822;2023-03-01T06:19:57;102075.28;;;12.72;58.34
52777;BME280;38656;54.260;20.822;2023-03-01T06:22:23;102073.38;;;14.22;55.50
52777;BME280;38656;54.260;20.822;2023-03-01T06:24:50;102072.09;;;14.66;54.46
52777;BME280;38656;54.260;20.822;2023-03-01T06:27:16;102076.53;;;14.66;54.81
52777;BME280;38656;54.260;20.822;2023-03-01T06:29:42;102074.22;;;14.10;57.10
52777;BME280;38656;54.260;20.822;2023-03-01T06:32:08;102079.06;;;13.65;57.45
52777;BME280;38656;54.260;20.822;2023-03-01T06:34:34;102077.72;;;14.49;52.44
52777;BME280;38656;54.260;20.822;2023-03-01T06:37:01;102081.63;;;14.56;57.12
52777;BME280;38656;54.260;20.822;2023-03-01T06:39:31;102088.38;;;14.23;54.51
52777;BME280;38656;54.260;20.822;2023-03-01T06:41:57;102095.63;;;13.55;58.57
52777;BME280;38656;54.260;20.822;2023-03-01T06:44:24;102098.72;;;13.35;58.21
52777;BME280;38656;54.260;20.822;2023-03-01T06:46:50;102093.34;;;14.15;56.37
52777;BME280;38656;54.260;20.822;2023-03-01T06:49:16;102085.72;;;15.23;53.22
52777;BME280;38656;54.260;20.822;2023-03-01T06:51:43;102085.66;;;14.75;53.25
52777;BME280;38656;54.260;20.822;2023-03-01T06:54:10;102084.84;;;16.18;52.19
52777;BME280;38656;54.260;20.822;2023-03-01T06:56:36;102072.09;;;14.66;55.48
52777;BME280;38656;54.260;20.822;2023-03-01T06:59:03;102068.00;;;15.35;55.51
52777;BME280;38656;54.260;20.822;2023-03-01T07:01:30;102068.94;;;14.23;54.55
52777;BME280;38656;54.260;20.822;2023-03-01T07:03:56;102071.97;;;13.78;59.50
52777;BME280;38656;54.260;20.822;2023-03-01T07:06:23;102076.13;;;13.95;54.80
52777;BME280;38656;54.260;20.822;2023-03-01T07:08:49;102070.84;;;15.80;52.14
52777;BME280;38656;54.260;20.822;2023-03-01T07:11:16;102073.09;;;15.38;54.63
52777;BME280;38656;54.260;20.822;2023-03-01T07:13:42;102074.84;;;13.75;57.29
52777;BME280;38656;54.260;20.822;2023-03-01T07:16:08;102070.41;;;14.40;56.20
52777;BME280;38656;54.260;20.822;2023-03-01T07:18:34;102076.88;;;13.44;61.82
52777;BME280;38656;54.260;20.822;2023-03-01T07:21:08;102074.44;;;14.95;54.51
52777;BME280;38656;54.260;20.822;2023-03-01T07:23:34;102080.25;;;17.31;50.51
52777;BME280;38656;54.260;20.822;2023-03-01T07:26:01;102084.63;;;14.64;56.05
52777;BME280;38656;54.260;20.822;2023-03-01T07:28:27;102076.19;;;15.56;54.80
52777;BME280;38656;54.260;20.822;2023-03-01T07:30:54;102090.66;;;15.40;54.25
52777;BME280;38656;54.260;20.822;2023-03-01T07:33:20;102085.00;;;14.84;58.66
52777;BME280;38656;54.260;20.822;2023-03-01T07:35:47;102085.78;;;15.10;54.52
52777;BME280;38656;54.260;20.822;2023-03-01T07:38:13;102088.84;;;14.54;55.09
52777;BME280;38656;54.260;20.822;2023-03-01T07:40:39;102088.44;;;14.34;58.52
52777;BME280;38656;54.260;20.822;2023-03-01T07:43:08;102077.88;;;15.57;55.17
52777;BME280;38656;54.260;20.822;2023-03-01T07:45:34;102086.13;;;14.04;59.17
52777;BME280;38656;54.260;20.822;2023-03-01T07:48:00;102086.44;;;14.64;57.38
52777;BME280;38656;54.260;20.822;2023-03-01T07:50:26;102090.22;;;13.70;59.62
52777;BME280;38656;54.260;20.822;2023-03-01T07:52:52;102088.19;;;14.89;60.19
52777;BME280;38656;54.260;20.822;2023-03-01T07:55:19;102076.91;;;14.23;59.30
52777;BME280;38656;54.260;20.822;2023-03-01T07:57:45;102088.63;;;13.67;61.15
52777;BME280;38656;54.260;20.822;2023-03-01T08:00:13;102073.66;;;14.43;59.99
52777;BME280;38656;54.260;20.822;2023-03-01T08:02:39;102080.19;;;13.20;63.60
52777;BME280;38656;54.260;20.822;2023-03-01T08:05:08;102075.47;;;14.81;58.50
52777;BME280;38656;54.260;20.822;2023-03-01T08:07:35;102074.00;;;14.51;57.12
52777;BME280;38656;54.260;20.822;2023-03-01T08:10:02;102067.72;;;15.02;60.63
52777;BME280;38656;54.260;20.822;2023-03-01T08:12:28;102067.38;;;16.36;53.74
52777;BME280;38656;54.260;20.822;2023-03-01T08:14:54;102079.31;;;15.01;53.63
52777;BME280;38656;54.260;20.822;2023-03-01T08:17:21;102071.56;;;15.58;53.31
52777;BME280;38656;54.260;20.822;2023-03-01T08:19:47;102076.47;;;15.75;53.70
52777;BME280;38656;54.260;20.822;2023-03-01T08:22:13;102077.31;;;16.12;55.59
52777;BME280;38656;54.260;20.822;2023-03-01T08:24:40;102076.81;;;18.25;49.59
52777;BME280;38656;54.260;20.822;2023-03-01T08:27:06;102070.53;;;16.53;48.55
52777;BME280;38656;54.260;20.822;2023-03-01T08:29:33;102069.72;;;17.72;48.34
52777;BME280;38656;54.260;20.822;2023-03-01T08:31:59;102082.22;;;14.98;54.98
52777;BME280;38656;54.260;20.822;2023-03-01T08:34:26;102079.03;;;16.35;51.67
52777;BME280;38656;54.260;20.822;2023-03-01T08:36:52;102075.63;;;16.22;52.94
52777;BME280;38656;54.260;20.822;2023-03-01T08:39:19;102075.03;;;16.30;52.51
52777;BME280;38656;54.260;20.822;2023-03-01T08:41:46;102076.00;;;18.34;45.60
52777;BME280;38656;54.260;20.822;2023-03-01T08:44:13;102081.19;;;16.07;53.11
52777;BME280;38656;54.260;20.822;2023-03-01T08:46:43;102081.09;;;17.21;51.04
52777;BME280;38656;54.260;20.822;2023-03-01T08:49:19;102077.81;;;16.62;49.64
52777;BME280;38656;54.260;20.822;2023-03-01T08:51:47;102071.88;;;15.66;53.30
52777;BME280;38656;54.260;20.822;2023-03-01T08:54:15;102068.81;;;15.84;55.14
52777;BME280;38656;54.260;20.822;2023-03-01T08:56:42;102058.59;;;15.78;54.55
52777;BME280;38656;54.260;20.822;2023-03-01T08:59:09;102070.75;;;16.72;50.55
52777;BME280;38656;54.260;20.822;2023-03-01T09:01:36;102057.00;;;15.75;53.08
52777;BME280;38656;54.260;20.822;2023-03-01T09:04:03;102061.50;;;15.15;56.52
52777;BME280;38656;54.260;20.822;2023-03-01T09:06:33;102066.78;;;17.22;52.21
52777;BME280;38656;54.260;20.822;2023-03-01T09:09:00;102069.84;;;14.97;54.19
52777;BME280;38656;54.260;20.822;2023-03-01T09:11:28;102067.22;;;18.53;47.96
52777;BME280;38656;54.260;20.822;2023-03-01T09:13:55;102071.50;;;16.40;50.59
52777;BME280;38656;54.260;20.822;2023-03-01T09:16:23;102074.53;;;16.70;48.12
52777;BME280;38656;54.260;20.822;2023-03-01T09:18:53;102072.97;;;15.39;54.59
52777;BME280;38656;54.260;20.822;2023-03-01T09:21:22;102071.22;;;15.03;52.87
52777;BME280;38656;54.260;20.822;2023-03-01T09:23:49;102075.88;;;15.72;54.51
52777;BME280;38656;54.260;20.822;2023-03-01T09:26:18;102058.94;;;16.42;50.69
52777;BME280;38656;54.260;20.822;2023-03-01T09:28:45;102066.16;;;16.18;50.43
52777;BME280;38656;54.260;20.822;2023-03-01T09:31:12;102060.63;;;17.10;49.12
52777;BME280;38656;54.260;20.822;2023-03-01T09:33:40;102054.03;;;18.71;46.81
52777;BME280;38656;54.260;20.822;2023-03-01T09:36:12;102055.34;;;18.97;44.82
52777;BME280;38656;54.260;20.822;2023-03-01T09:38:39;102053.22;;;16.36;49.84
52777;BME280;38656;54.260;20.822;2023-03-01T09:46:53;102045.75;;;15.12;54.43
52777;BME280;38656;54.260;20.822;2023-03-01T09:49:23;102053.97;;;15.33;57.15
52777;BME280;38656;54.260;20.822;2023-03-01T09:52:17;102041.69;;;15.54;54.70
52777;BME280;38656;54.260;20.822;2023-03-01T09:54:48;102043.88;;;16.30;52.34
52777;BME280;38656;54.260;20.822;2023-03-01T09:57:26;102054.81;;;16.38;51.74
52777;BME280;38656;54.260;20.822;2023-03-01T10:02:30;102053.34;;;16.23;52.83
52777;BME280;38656;54.260;20.822;2023-03-01T10:09:00;102058.53;;;16.58;51.20
52777;BME280;38656;54.260;20.822;2023-03-01T10:11:03;102065.28;;;15.48;53.57
52777;BME280;38656;54.260;20.822;2023-03-01T10:19:01;102068.06;;;15.82;53.06
52777;BME280;38656;54.260;20.822;2023-03-01T10:21:30;102066.19;;;16.06;51.87
52777;BME280;38656;54.260;20.822;2023-03-01T10:24:13;102058.78;;;17.75;48.76
52777;BME280;38656;54.260;20.822;2023-03-01T10:29:13;102053.78;;;16.85;49.70
52777;BME280;38656;54.260;20.822;2023-03-01T10:31:46;102048.72;;;14.20;53.21
52777;BME280;38656;54.260;20.822;2023-03-01T10:34:17;102046.19;;;14.19;58.17
52777;BME280;38656;54.260;20.822;2023-03-01T10:36:47;102039.28;;;16.21;51.72
52777;BME280;38656;54.260;20.822;2023-03-01T10:39:17;102050.63;;;15.89;51.34
52777;BME280;38656;54.260;20.822;2023-03-01T10:42:02;102037.47;;;16.21;50.75
52777;BME280;38656;54.260;20.822;2023-03-01T10:44:41;102043.59;;;15.88;52.35
52777;BME280;38656;54.260;20.822;2023-03-01T10:47:33;102034.75;;;16.78;48.14
52777;BME280;38656;54.260;20.822;2023-03-01T10:50:09;102031.56;;;18.43;46.91
52777;BME280;38656;54.260;20.822;2023-03-01T10:53:00;102027.88;;;18.34;45.36
52777;BME280;38656;54.260;20.822;2023-03-01T10:55:37;102036.66;;;17.31;48.42
52777;BME280;38656;54.260;20.822;2023-03-01T10:58:08;102043.25;;;17.27;47.13
52777;BME280;38656;54.260;20.822;2023-03-01T11:00:56;102031.78;;;16.03;53.08
52777;BME280;38656;54.260;20.822;2023-03-01T11:03:40;102030.78;;;14.98;53.92
52777;BME280;38656;54.260;20.822;2023-03-01T11:06:22;102031.06;;;16.35;52.10
52777;BME280;38656;54.260;20.822;2023-03-01T11:08:49;102029.47;;;16.10;52.42
52777;BME280;38656;54.260;20.822;2023-03-01T11:11:32;102029.13;;;17.99;47.91
52777;BME280;38656;54.260;20.822;2023-03-01T11:14:06;102034.03;;;15.14;53.17
52777;BME280;38656;54.260;20.822;2023-03-01T11:16:36;102035.50;;;17.24;50.98
52777;BME280;38656;54.260;20.822;2023-03-01T11:21:47;102036.28;;;17.03;49.58
52777;BME280;38656;54.260;20.822;2023-03-01T11:24:17;102041.56;;;17.47;48.24
52777;BME280;38656;54.260;20.822;2023-03-01T11:26:51;102031.38;;;17.20;48.77
52777;BME280;38656;54.260;20.822;2023-03-01T11:29:38;102024.22;;;16.88;48.49
52777;BME280;38656;54.260;20.822;2023-03-01T11:32:09;102028.84;;;17.18;46.93
52777;BME280;38656;54.260;20.822;2023-03-01T11:34:43;102024.41;;;18.13;46.83
52777;BME280;38656;54.260;20.822;2023-03-01T11:40:05;102030.69;;;17.06;48.82
52777;BME280;38656;54.260;20.822;2023-03-01T11:45:23;102025.16;;;15.73;52.94
52777;BME280;38656;54.260;20.822;2023-03-01T11:50:43;102016.13;;;17.10;47.14
52777;BME280;38656;54.260;20.822;2023-03-01T11:53:26;102028.38;;;16.01;50.51
52777;BME280;38656;54.260;20.822;2023-03-01T12:09:25;102026.97;;;18.65;46.62
52777;BME280;38656;54.260;20.822;2023-03-01T12:15:20;102021.25;;;17.56;49.00
52777;BME280;38656;54.260;20.822;2023-03-01T12:18:09;102021.97;;;16.81;49.36
52777;BME280;38656;54.260;20.822;2023-03-01T12:34:16;102004.84;;;16.52;48.60
52777;BME280;38656;54.260;20.822;2023-03-01T12:37:08;102009.50;;;17.26;47.42
52777;BME280;38656;54.260;20.822;2023-03-01T12:48:17;101997.03;;;21.16;40.43
52777;BME280;38656;54.260;20.822;2023-03-01T12:50:47;102002.66;;;18.87;43.12
52777;BME280;38656;54.260;20.822;2023-03-01T12:56:07;102004.16;;;17.26;46.82
52777;BME280;38656;54.260;20.822;2023-03-01T13:01:53;101995.81;;;18.44;44.20
52777;BME280;38656;54.260;20.822;2023-03-01T13:07:04;101990.00;;;18.99;42.35
52777;BME280;38656;54.260;20.822;2023-03-01T13:13:01;101985.00;;;17.21;46.27
52777;BME280;38656;54.260;20.822;2023-03-01T13:15:32;101977.22;;;18.62;44.76
52777;BME280;38656;54.260;20.822;2023-03-01T13:21:00;101963.31;;;18.08;45.22
52777;BME280;38656;54.260;20.822;2023-03-01T13:23:37;101968.78;;;18.57;44.06
52777;BME280;38656;54.260;20.822;2023-03-01T13:26:13;101967.03;;;17.02;47.01
52777;BME280;38656;54.260;20.822;2023-03-01T13:28:48;101968.00;;;19.15;44.10
52777;BME280;38656;54.260;20.822;2023-03-01T13:33:49;101955.03;;;19.30;44.10
52777;BME280;38656;54.260;20.822;2023-03-01T13:49:59;101946.25;;;16.29;49.15
52777;BME280;38656;54.260;20.822;2023-03-01T13:52:45;101937.22;;;18.41;45.27
52777;BME280;38656;54.260;20.822;2023-03-01T13:57:48;101941.59;;;17.92;46.08
52777;BME280;38656;54.260;20.822;2023-03-01T14:00:32;101926.50;;;17.60;47.18
52777;BME280;38656;54.260;20.822;2023-03-01T14:03:09;101930.53;;;17.75;45.09
52777;BME280;38656;54.260;20.822;2023-03-01T14:05:36;101921.81;;;18.14;45.37
52777;BME280;38656;54.260;20.822;2023-03-01T14:08:04;101925.03;;;17.25;46.01
52777;BME280;38656;54.260;20.822;2023-03-01T14:13:58;101916.97;;;18.68;44.16
52777;BME280;38656;54.260;20.822;2023-03-01T14:19:20;101915.91;;;16.41;49.01
52777;BME280;38656;54.260;20.822;2023-03-01T14:24:26;101911.63;;;17.36;47.81
52777;BME280;38656;54.260;20.822;2023-03-01T14:26:53;101917.34;;;16.89;49.57
52777;BME280;38656;54.260;20.822;2023-03-01T14:29:37;101903.63;;;19.54;44.28
52777;BME280;38656;54.260;20.822;2023-03-01T14:32:21;101916.94;;;15.61;50.89
52777;BME280;38656;54.260;20.822;2023-03-01T14:34:49;101907.44;;;17.74;47.55
52777;BME280;38656;54.260;20.822;2023-03-01T14:37:29;101907.03;;;18.10;47.82
52777;BME280;38656;54.260;20.822;2023-03-01T14:39:58;101911.63;;;15.84;50.49
52777;BME280;38656;54.260;20.822;2023-03-01T14:42:36;101905.88;;;16.22;50.65
52777;BME280;38656;54.260;20.822;2023-03-01T14:45:04;101903.69;;;18.17;45.79
52777;BME280;38656;54.260;20.822;2023-03-01T14:47:34;101894.72;;;18.57;45.54
52777;BME280;38656;54.260;20.822;2023-03-01T14:50:26;101910.88;;;17.86;47.33
52777;BME280;38656;54.260;20.822;2023-03-01T14:52:56;101911.34;;;16.21;49.56
52777;BME280;38656;54.260;20.822;2023-03-01T14:55:38;101907.16;;;16.83;48.02
52777;BME280;38656;54.260;20.822;2023-03-01T14:58:14;101914.25;;;16.29;48.95